Time;durP1;ratioP1;P1;durP2;ratioP2;P2;SDS_P1;SDS_P2;PMS_P1;PMS_P2;Temp;Humidity;BMP_temperature;BMP_pressure;BME280_temperature;BME280_humidity;BME280_pressure;Samples;Min_cycle;Max_cycle;Signal;HPM_P1;HPM_P2
2022/02/25 00:00:43;;;;;;;0.88;0.28;;;;;;;-144.43;100.00;64487.81;5000191;28;20054;-67
2022/02/25 00:03:09;;;;;;;0.20;0.20;;;;;;;-144.43;100.00;64487.81;5001994;28;20077;-67
2022/02/25 00:05:35;;;;;;;0.30;0.22;;;;;;;-144.43;100.00;64487.81;4999281;28;20497;-67
2022/02/25 00:08:06;;;;;;;0.20;0.20;;;;;;;-144.43;100.00;64487.81;5000114;28;20050;-67
2022/02/25 00:10:31;;;;;;;0.47;0.20;;;;;;;-144.43;100.00;64487.81;4999961;28;20041;-67
2022/02/25 00:13:00;;;;;;;0.30;0.30;;;;;;;-144.43;100.00;64487.81;4998778;28;20034;-66
2022/02/25 00:15:28;;;;;;;0.25;0.20;;;;;;;-144.43;100.00;64487.81;4999354;28;20105;-67
2022/02/25 00:17:54;;;;;;;0.22;0.20;;;;;;;-144.43;100.00;64487.81;4999166;28;20022;-67
2022/02/25 00:20:23;;;;;;;0.40;0.22;;;;;;;-144.43;100.00;64487.81;4999856;28;20026;-67
2022/02/25 00:25:41;;;;;;;2.25;0.43;;;;;;;-144.43;100.00;64487.81;4999129;28;20022;-66
2022/02/25 00:28:09;;;;;;;1.33;0.40;;;;;;;-144.43;100.00;64487.81;4997608;28;20026;-66
2022/02/25 00:30:38;;;;;;;1.75;0.45;;;;;;;-144.43;100.00;64487.81;4999230;28;20084;-65
2022/02/25 00:33:11;;;;;;;0.85;0.50;;;;;;;-144.43;100.00;64487.81;4998235;28;20041;-66
2022/02/25 00:35:37;;;;;;;0.77;0.50;;;;;;;-144.43;100.00;64487.81;5004528;28;20081;-66
2022/02/25 00:38:02;;;;;;;2.63;0.88;;;;;;;-144.43;100.00;64487.81;5017215;28;20045;-66
2022/02/25 00:40:30;;;;;;;0.80;0.35;;;;;;;-144.43;100.00;64487.81;5016900;28;20034;-65
2022/02/25 00:43:05;;;;;;;4.28;0.75;;;;;;;-144.43;100.00;64487.81;5014896;28;20076;-66
2022/02/25 00:45:30;;;;;;;0.88;0.32;;;;;;;-144.43;100.00;64487.81;5018160;28;20109;-66
2022/02/25 00:47:59;;;;;;;2.97;0.50;;;;;;;-144.43;100.00;64487.81;5015400;28;20056;-66
2022/02/25 00:50:24;;;;;;;0.93;0.55;;;;;;;-144.43;100.00;64487.81;5017973;28;20084;-64
2022/02/25 00:52:50;;;;;;;1.17;0.50;;;;;;;-144.43;100.00;64487.81;5016695;28;20436;-66
2022/02/25 00:55:15;;;;;;;1.70;0.40;;;;;;;-144.43;100.00;64487.81;5010508;28;20026;-66
2022/02/25 00:57:47;;;;;;;0.30;0.30;;;;;;;-144.43;100.00;64487.81;4997007;28;20026;-66
2022/02/25 01:00:14;;;;;;;0.30;0.30;;;;;;;-144.43;100.00;64487.81;4995919;28;20022;-66
2022/02/25 01:02:41;;;;;;;0.90;0.30;;;;;;;-144.43;100.00;64487.81;4995743;28;20034;-66
2022/02/25 01:05:06;;;;;;;1.08;0.40;;;;;;;-144.43;100.00;64487.81;4996317;28;20030;-66
2022/02/25 01:07:42;;;;;;;0.70;0.30;;;;;;;-144.43;100.00;64487.81;4997181;28;20018;-66
2022/02/25 01:10:10;;;;;;;0.40;0.35;;;;;;;-144.43;100.00;64487.81;4999011;28;20026;-66
2022/02/25 01:12:43;;;;;;;0.38;0.38;;;;;;;-144.43;100.00;64487.81;4999357;28;20037;-66
2022/02/25 01:15:08;;;;;;;;;;;;;;;-144.43;100.00;64487.81;4999182;28;20054;-66
2022/02/25 01:17:37;;;;;;;0.38;0.30;;;;;;;-144.43;100.00;64487.81;5017364;28;19913;-66
2022/02/25 01:20:07;;;;;;;0.70;0.40;;;;;;;-144.43;100.00;64487.81;5018654;28;20145;-65
2022/02/25 01:22:34;;;;;;;0.40;0.40;;;;;;;5.82;100.00;94949.19;5017161;28;20021;-66
2022/02/25 01:24:59;;;;;;;2.10;0.45;;;;;;;1.35;100.00;95294.38;5017910;28;20372;-66
2022/02/25 01:27:30;;;;;;;1.05;0.52;;;;;;;1.30;100.00;95316.13;5002972;28;20014;-66
2022/02/25 01:29:58;;;;;;;0.40;0.40;;;;;;;1.29;100.00;95342.69;5003814;28;20494;-66
2022/02/25 01:32:24;;;;;;;0.95;0.57;;;;;;;1.25;100.00;95352.03;5015308;28;20030;-66
2022/02/25 01:34:49;;;;;;;1.92;0.50;;;;;;;1.18;100.00;95362.53;5021626;28;20037;-66
2022/02/25 01:37:21;;;;;;;2.65;0.70;;;;;;;1.14;100.00;95369.25;5023233;28;20029;-65
2022/02/25 01:39:48;;;;;;;1.27;0.50;;;;;;;1.15;100.00;95376.16;4985842;28;20023;-66
2022/02/25 01:42:46;;;;;;;1.17;0.57;;;;;;;1.14;100.00;95398.28;4985291;28;20026;-65
2022/02/25 01:45:16;;;;;;;1.65;0.60;;;;;;;1.16;100.00;95407.59;4987919;28;20049;-65
2022/02/25 01:47:47;;;;;;;0.95;0.70;;;;;;;1.16;100.00;95419.97;5004296;28;20464;-66
2022/02/25 01:50:21;;;;;;;1.95;1.10;;;;;;;1.12;100.00;95421.41;5002344;28;20026;-66
2022/02/25 01:53:05;;;;;;;2.20;0.80;;;;;;;1.11;100.00;95425.88;5004336;28;20027;-66
2022/02/25 01:55:41;;;;;;;1.17;0.50;;;;;;;1.08;100.00;95422.78;5003303;28;20030;-65
2022/02/25 01:58:10;;;;;;;2.00;0.60;;;;;;;1.08;100.00;95434.16;5003095;28;20436;-66
2022/02/25 02:00:35;;;;;;;2.60;1.30;;;;;;;1.05;100.00;95439.84;5003670;28;20038;-65
2022/02/25 02:03:02;;;;;;;3.33;1.00;;;;;;;1.02;100.00;95442.88;5004505;28;20026;-66
2022/02/25 02:05:27;;;;;;;1.83;0.60;;;;;;;0.99;100.00;95445.09;5003533;28;20098;-65
2022/02/25 02:07:53;;;;;;;5.07;0.70;;;;;;;0.93;100.00;95451.94;5003659;28;20030;-65
2022/02/25 02:10:19;;;;;;;4.03;1.05;;;;;;;0.91;100.00;95448.72;5003764;28;20053;-65
2022/02/25 02:12:45;;;;;;;4.13;0.80;;;;;;;0.95;100.00;95462.31;5007644;28;20385;-65
2022/02/25 02:15:23;;;;;;;1.63;0.70;;;;;;;0.94;100.00;95464.13;5003171;28;20045;-66
2022/02/25 02:17:48;;;;;;;3.17;0.90;;;;;;;0.92;100.00;95460.06;4989450;28;20023;-65
2022/02/25 02:20:14;;;;;;;3.47;0.70;;;;;;;0.90;100.00;95467.38;4984049;28;20033;-65
2022/02/25 02:22:39;;;;;;;3.38;1.08;;;;;;;0.91;100.00;95464.53;4989506;28;20015;-65
2022/02/25 02:25:05;;;;;;;3.08;1.20;;;;;;;0.93;100.00;95465.13;5003436;28;20062;-65
2022/02/25 02:30:17;;;;;;;3.28;0.90;;;;;;;0.91;100.00;95469.00;5004185;28;20057;-66
2022/02/25 02:32:42;;;;;;;2.55;1.10;;;;;;;0.86;100.00;95482.75;5002869;28;20412;-65
2022/02/25 02:35:26;;;;;;;5.72;1.60;;;;;;;0.88;100.00;95487.84;5004448;28;20080;-65
2022/02/25 02:37:52;;;;;;;4.13;1.33;;;;;;;0.85;100.00;95496.94;5004822;28;20052;-65
2022/02/25 02:40:18;;;;;;;5.38;1.02;;;;;;;0.84;100.00;95505.88;5003324;28;20022;-65
2022/02/25 02:42:44;;;;;;;4.05;1.00;;;;;;;0.85;100.00;95503.03;5003477;28;20069;-65
2022/02/25 02:45:10;;;;;;;3.13;0.90;;;;;;;0.82;100.00;95502.59;5003423;28;20066;-66
2022/02/25 02:47:36;;;;;;;2.22;1.10;;;;;;;0.83;100.00;95510.31;5003305;28;20032;-65
2022/02/25 02:50:02;;;;;;;3.20;0.90;;;;;;;0.83;100.00;95506.88;5004059;28;20030;-65
2022/02/25 02:52:31;;;;;;;2.00;0.88;;;;;;;0.83;100.00;95514.78;5003721;28;20030;-66
2022/02/25 02:55:00;;;;;;;2.58;1.13;;;;;;;0.82;100.00;95523.69;5002722;28;20018;-65
2022/02/25 02:57:25;;;;;;;3.40;0.82;;;;;;;0.80;100.00;95528.38;5021503;28;20101;-65
2022/02/25 02:59:50;;;;;;;4.80;1.15;;;;;;;0.76;100.00;95529.75;5024219;28;20393;-66
2022/02/25 03:02:16;;;;;;;1.77;0.85;;;;;;;0.74;100.00;95535.22;5008363;28;20022;-65
2022/02/25 03:04:42;;;;;;;5.28;1.25;;;;;;;0.73;100.00;95536.22;5004240;28;20030;-65
2022/02/25 03:07:13;;;;;;;2.33;1.10;;;;;;;0.72;100.00;95536.41;5018984;28;20053;-65
2022/02/25 03:09:39;;;;;;;3.13;1.33;;;;;;;0.70;100.00;95541.06;5021924;28;20088;-65
2022/02/25 03:12:05;;;;;;;4.43;1.38;;;;;;;0.66;100.00;95543.28;5022816;28;20108;-64
2022/02/25 03:14:31;;;;;;;3.33;1.60;;;;;;;0.62;100.00;95549.94;5021083;28;20025;-65
2022/02/25 03:16:56;;;;;;;2.40;1.52;;;;;;;0.64;100.00;95550.53;5010184;28;20636;-65
2022/02/25 03:19:22;;;;;;;3.90;1.50;;;;;;;0.62;100.00;95554.38;5002766;28;20014;-65
2022/02/25 03:21:48;;;;;;;2.30;1.35;;;;;;;0.62;100.00;95546.47;5001179;28;20026;-65
2022/02/25 03:24:20;;;;;;;2.25;1.40;;;;;;;0.64;100.00;95560.28;5008108;28;20029;-65
2022/02/25 03:26:48;;;;;;;3.05;1.33;;;;;;;0.58;100.00;95562.69;5022787;28;20025;-65
2022/02/25 03:29:15;;;;;;;1.90;1.30;;;;;;;0.62;100.00;95563.09;5015563;28;20030;-64
2022/02/25 03:31:40;;;;;;;4.57;1.75;;;;;;;0.62;100.00;95560.47;5000968;28;20036;-65
2022/02/25 03:34:09;;;;;;;2.05;1.30;;;;;;;0.58;100.00;95556.59;4999751;28;20034;-65
2022/02/25 03:36:37;;;;;;;3.35;1.27;;;;;;;0.53;100.00;95559.78;4998579;28;20046;-65
2022/02/25 03:39:06;;;;;;;3.70;1.33;;;;;;;0.53;100.00;95566.88;4999298;28;20018;-65
2022/02/25 03:41:40;;;;;;;3.25;1.33;;;;;;;0.53;100.00;95570.34;5001031;28;20033;-66
2022/02/25 03:44:06;;;;;;;2.47;1.48;;;;;;;0.50;100.00;95565.44;4998579;28;20052;-65
2022/02/25 03:46:34;;;;;;;0.95;0.93;;;;;;;0.50;100.00;95560.19;5000151;28;20088;-66
2022/02/25 03:49:06;;;;;;;1.42;1.00;;;;;;;0.50;100.00;95559.38;4999103;28;20592;-65
2022/02/25 03:51:31;;;;;;;2.13;1.20;;;;;;;0.47;100.00;95559.75;5000779;28;20034;-65
2022/02/25 03:53:59;;;;;;;2.03;1.15;;;;;;;0.46;100.00;95563.41;5000426;28;20022;-65
2022/02/25 03:56:28;;;;;;;3.83;1.17;;;;;;;0.47;100.00;95563.22;5011559;28;20026;-66
2022/02/25 03:58:59;;;;;;;2.28;1.13;;;;;;;0.49;100.00;95570.91;5019125;28;20022;-65
2022/02/25 04:01:25;;;;;;;2.70;1.13;;;;;;;0.50;100.00;95576.00;5019673;28;20028;-65
2022/02/25 04:03:52;;;;;;;1.95;1.17;;;;;;;0.51;100.00;95572.34;5020703;28;20022;-66
2022/02/25 04:06:21;;;;;;;2.25;0.82;;;;;;;0.51;100.00;95579.44;5007291;28;20026;-66
2022/02/25 04:08:46;;;;;;;2.03;1.00;;;;;;;0.50;100.00;95573.34;4998868;28;20030;-66
2022/02/25 04:11:12;;;;;;;1.98;0.93;;;;;;;0.53;100.00;95569.53;5000586;28;20088;-66
2022/02/25 04:13:41;;;;;;;1.20;1.10;;;;;;;0.54;100.00;95577.25;4999693;28;20054;-66
2022/02/25 04:16:07;;;;;;;1.27;0.93;;;;;;;0.52;100.00;95576.63;4999680;28;20063;-66
2022/02/25 04:18:33;;;;;;;3.85;1.40;;;;;;;0.49;100.00;95577.00;4998815;28;20057;-66
2022/02/25 04:20:58;;;;;;;3.85;1.17;;;;;;;0.50;100.00;95580.44;4999478;28;20022;-66
2022/02/25 04:23:24;;;;;;;4.07;1.10;;;;;;;0.50;100.00;95589.16;4998066;28;20316;-65
2022/02/25 04:25:50;;;;;;;1.95;1.20;;;;;;;0.50;100.00;95581.25;5006054;28;20041;-66
2022/02/25 04:28:16;;;;;;;3.85;0.90;;;;;;;0.49;100.00;95594.63;5019224;28;20104;-66
2022/02/25 04:30:42;;;;;;;3.42;1.27;;;;;;;0.48;100.00;95585.91;5017321;28;20040;-66
2022/02/25 04:33:17;;;;;;;3.80;1.10;;;;;;;0.46;100.00;95598.47;5020938;28;20022;-66
2022/02/25 04:36:00;;;;;;;2.63;1.70;;;;;;;0.42;100.00;95602.47;5013311;28;20026;-66
2022/02/25 04:38:26;;;;;;;2.58;1.08;;;;;;;0.40;100.00;95599.22;5000149;28;20034;-66
2022/02/25 04:40:51;;;;;;;1.35;0.95;;;;;;;0.42;100.00;95602.47;5001697;28;20034;-66
2022/02/25 04:43:19;;;;;;;3.63;1.08;;;;;;;0.42;100.00;95605.09;5030362;23;20578;-66
2022/02/25 04:45:44;;;;;;;4.60;1.55;;;;;;;0.39;100.00;95608.13;5038225;22;20049;-66
2022/02/25 04:48:12;;;;;;;2.85;0.90;;;;;;;0.41;100.00;95603.47;5032415;28;20400;-66
2022/02/25 04:50:44;;;;;;;2.90;0.85;;;;;;;0.42;100.00;95599.84;5032314;28;20147;-66
2022/02/25 04:53:10;;;;;;;5.00;1.42;;;;;;;0.43;100.00;95603.28;5032160;28;20041;-66
2022/02/25 04:55:46;;;;;;;1.77;0.95;;;;;;;0.40;100.00;95604.47;5013902;28;20034;-67
2022/02/25 04:58:15;;;;;;;1.77;0.77;;;;;;;0.38;100.00;95601.22;5032450;28;20383;-66
2022/02/25 05:00:40;;;;;;;2.35;1.02;;;;;;;0.39;100.00;95602.03;5014634;28;20383;-66
2022/02/25 05:03:07;;;;;;;4.82;0.90;;;;;;;0.37;100.00;95602.25;5036254;28;20033;-66
2022/02/25 05:05:42;;;;;;;3.35;1.00;;;;;;;0.39;100.00;95600.22;5032109;28;20033;-66
2022/02/25 05:08:12;;;;;;;4.57;0.73;;;;;;;0.39;100.00;95612.59;5032063;28;20085;-66
2022/02/25 05:10:43;;;;;;;4.85;0.95;;;;;;;0.38;100.00;95606.50;5032202;28;20483;-66
2022/02/25 05:13:10;;;;;;;2.03;0.98;;;;;;;0.40;100.00;95608.94;5032390;28;20041;-66
2022/02/25 05:21:06;;;;;;;3.03;1.05;;;;;;;0.38;100.00;95624.13;5032348;28;20147;-66
2022/02/25 05:23:32;;;;;;;2.35;0.80;;;;;;;0.36;100.00;95620.88;5042188;28;20028;-66
2022/02/25 05:25:57;;;;;;;6.75;1.00;;;;;;;0.30;100.00;95625.06;5049702;28;20099;-66
2022/02/25 05:28:43;;;;;;;2.42;1.10;;;;;;;0.28;100.00;95632.34;5051736;28;20031;-66
2022/02/25 05:31:08;;;;;;;7.05;1.25;;;;;;;0.27;100.00;95636.81;5045564;28;20034;-66
2022/02/25 05:33:41;;;;;;;3.80;1.00;;;;;;;0.26;100.00;95634.34;5031900;28;20480;-66
2022/02/25 05:36:06;;;;;;;2.58;0.90;;;;;;;0.22;100.00;95635.75;5041040;28;20025;-66
2022/02/25 05:38:35;;;;;;;1.60;0.80;;;;;;;0.21;100.00;95632.25;5051866;28;20426;-66
2022/02/25 05:41:05;;;;;;;4.47;0.90;;;;;;;0.13;100.00;95634.22;5051672;28;20021;-66
2022/02/25 05:43:40;;;;;;;2.25;0.80;;;;;;;0.08;100.00;95639.22;5051598;28;20028;-66
2022/02/25 05:46:05;;;;;;;3.88;0.60;;;;;;;0.10;100.00;95650.38;5043196;28;20482;-66
2022/02/25 05:48:33;;;;;;;1.85;0.80;;;;;;;0.01;100.00;95654.97;5031855;28;20104;-66
2022/02/25 05:51:01;;;;;;;3.70;1.20;;;;;;;-0.10;100.00;95650.19;5031893;28;20021;-66
2022/02/25 05:53:28;;;;;;;1.67;0.65;;;;;;;-0.18;100.00;95653.72;5035666;28;20021;-66
2022/02/25 05:55:56;;;;;;;3.75;1.02;;;;;;;-0.20;100.00;95665.44;5033818;28;20052;-66
2022/02/25 05:58:47;;;;;;;4.38;1.38;;;;;;;-0.23;100.00;95665.78;5017468;28;20087;-66
2022/02/25 06:01:13;;;;;;;2.85;1.10;;;;;;;-0.26;100.00;95680.13;5035561;28;20033;-66
2022/02/25 06:03:38;;;;;;;3.15;1.10;;;;;;;-0.30;100.00;95676.25;5017198;28;20145;-67
2022/02/25 06:06:04;;;;;;;2.97;1.00;;;;;;;-0.36;100.00;95675.16;5034764;28;20021;-66
2022/02/25 06:08:31;;;;;;;2.95;0.80;;;;;;;-0.42;100.00;95689.06;5035046;28;20022;-66
2022/02/25 06:10:57;;;;;;;4.18;1.08;;;;;;;-0.51;100.00;95682.25;5035079;28;20415;-66
2022/02/25 06:13:38;;;;;;;1.83;1.00;;;;;;;-0.57;100.00;95687.41;5034979;28;20021;-66
2022/02/25 06:16:03;;;;;;;4.03;0.93;;;;;;;-0.64;100.00;95693.41;5034354;28;20105;-67
2022/02/25 06:18:29;;;;;;;1.70;0.82;;;;;;;-0.73;100.00;95707.63;5035177;28;20108;-67
2022/02/25 06:20:56;;;;;;;2.00;1.00;;;;;;;-0.82;100.00;95708.72;5014928;28;20116;-67
2022/02/25 06:23:25;;;;;;;1.58;0.70;;;;;;;-0.92;100.00;95719.47;5028991;28;20025;-66
2022/02/25 06:25:50;;;;;;;1.77;0.82;;;;;;;-0.97;100.00;95721.03;5033510;28;20044;-67
2022/02/25 06:28:18;;;;;;;4.15;0.95;;;;;;;-1.03;100.00;95733.03;5015640;28;20029;-67
2022/02/25 06:30:48;;;;;;;3.55;0.88;;;;;;;-1.11;100.00;95735.72;5034373;28;20304;-67
2022/02/25 06:33:16;;;;;;;4.43;1.00;;;;;;;-1.17;100.00;95742.53;5033880;28;20036;-67
2022/02/25 06:35:41;;;;;;;2.60;1.13;;;;;;;-1.20;100.00;95752.56;5016128;28;20017;-67
2022/02/25 06:38:12;;;;;;;5.30;0.98;;;;;;;-1.25;100.00;95747.84;5016012;28;20048;-67
2022/02/25 06:40:37;;;;;;;2.47;0.98;;;;;;;-1.25;100.00;95753.09;5031990;28;20057;-67
2022/02/25 06:43:03;;;;;;;4.57;1.00;;;;;;;-1.25;100.00;95754.91;5025592;28;20119;-67
2022/02/25 06:45:28;;;;;;;5.38;0.88;;;;;;;-1.26;100.00;95759.34;5017600;28;20036;-67
2022/02/25 06:48:11;;;;;;;3.92;1.10;;;;;;;-1.31;100.00;95755.59;5054421;28;20047;-66
2022/02/25 06:50:37;;;;;;;3.60;0.90;;;;;;;-1.29;100.00;95761.50;5046119;28;20108;-66
2022/02/25 06:53:05;;;;;;;4.10;1.05;;;;;;;-1.34;100.00;95764.66;5032196;28;20572;-66
2022/02/25 06:55:34;;;;;;;2.10;0.60;;;;;;;-1.36;100.00;95773.69;5034344;28;20380;-66
2022/02/25 06:58:00;;;;;;;2.33;1.00;;;;;;;-1.37;100.00;95766.81;5046293;28;20025;-66
2022/02/25 07:00:37;;;;;;;3.05;0.82;;;;;;;-1.42;100.00;95767.31;5042179;28;20029;-66
2022/02/25 07:03:04;;;;;;;2.03;0.80;;;;;;;-1.43;100.00;95770.94;5046145;28;20033;-66
2022/02/25 07:05:33;;;;;;;1.65;0.80;;;;;;;-1.44;100.00;95773.75;5021227;28;20418;-66
2022/02/25 07:07:59;;;;;;;3.53;0.82;;;;;;;-1.43;100.00;95775.38;5006656;28;20440;-66
2022/02/25 07:10:24;;;;;;;1.73;0.88;;;;;;;-1.44;100.00;95771.13;5036379;28;20033;-66
2022/02/25 07:12:59;;;;;;;3.28;0.77;;;;;;;-1.46;100.00;95771.28;5037646;28;20478;-65
2022/02/25 07:15:32;;;;;;;4.97;1.00;;;;;;;-1.42;100.00;95775.19;5039728;28;20028;-66
2022/02/25 07:18:06;;;;;;;3.22;1.13;;;;;;;-1.40;100.00;95775.88;5026869;28;20033;-66
2022/02/25 07:20:32;;;;;;;1.40;0.88;;;;;;;-1.39;100.00;95781.94;5036228;28;20052;-66
2022/02/25 07:23:01;;;;;;;2.65;1.00;;;;;;;-1.40;100.00;95777.69;5034448;28;20071;-65
2022/02/25 07:25:39;;;;;;;3.55;1.15;;;;;;;-1.34;100.00;95785.66;5029102;28;20033;-66
2022/02/25 07:28:06;;;;;;;5.68;1.13;;;;;;;-1.34;100.00;95785.66;5051117;28;20323;-66
2022/02/25 07:30:31;;;;;;;3.80;1.05;;;;;;;-1.33;100.00;95795.19;4994490;28;20095;-66
2022/02/25 07:32:57;;;;;;;2.05;1.15;;;;;;;-1.29;100.00;95795.69;5015877;28;20025;-66
2022/02/25 07:35:23;;;;;;;2.85;1.10;;;;;;;-1.22;100.00;95797.41;5031334;28;20033;-66
2022/02/25 07:38:09;;;;;;;4.40;1.58;;;;;;;-1.00;100.00;95798.41;5015656;28;20066;-66
2022/02/25 07:41:09;;;;;;;6.15;1.48;;;;;;;-0.63;100.00;95789.75;5015629;28;20079;-66
2022/02/25 07:43:35;;;;;;;3.22;1.48;;;;;;;-0.26;100.00;95782.81;5033823;28;20112;-66
2022/02/25 07:46:00;;;;;;;4.97;2.13;;;;;;;-0.03;100.00;95778.28;5032398;28;20136;-66
2022/02/25 07:48:26;;;;;;;7.93;1.75;;;;;;;0.20;100.00;95786.06;4999178;28;20527;-66
2022/02/25 07:50:55;;;;;;;8.32;1.67;;;;;;;0.39;100.00;95778.59;5015084;28;20504;-66
2022/02/25 07:53:20;;;;;;;4.85;1.48;;;;;;;0.55;100.00;95781.84;5033256;28;20478;-66
2022/02/25 07:55:54;;;;;;;5.35;1.50;;;;;;;0.87;100.00;95790.31;5015113;28;20017;-66
2022/02/25 07:58:24;;;;;;;5.22;1.60;;;;;;;1.12;100.00;95778.38;5033046;28;20033;-66
2022/02/25 08:00:49;;;;;;;3.08;1.55;;;;;;;1.22;100.00;95782.53;5015390;28;20036;-66
2022/02/25 08:03:17;;;;;;;4.38;1.10;;;;;;;1.41;100.00;95780.06;5032764;28;20025;-66
2022/02/25 08:05:46;;;;;;;5.35;1.30;;;;;;;1.68;100.00;95786.34;5032956;28;20025;-66
2022/02/25 08:08:11;;;;;;;6.28;1.10;;;;;;;1.85;100.00;95780.78;5032882;28;20108;-65
2022/02/25 08:10:46;;;;;;;6.38;1.38;;;;;;;1.89;100.00;95789.94;5032165;28;20112;-65
2022/02/25 08:13:12;;;;;;;3.40;1.30;;;;;;;2.12;100.00;95793.13;5014764;28;20030;-65
2022/02/25 08:15:42;;;;;;;4.93;1.38;;;;;;;2.27;100.00;95793.81;5014933;28;20237;-65
2022/02/25 08:18:10;;;;;;;2.97;1.10;;;;;;;2.61;100.00;95795.63;5031867;28;20074;-66
2022/02/25 08:20:40;;;;;;;2.40;1.20;;;;;;;2.86;100.00;95787.97;5015169;28;20048;-65
2022/02/25 08:23:12;;;;;;;3.50;1.15;;;;;;;3.09;100.00;95779.66;5032567;28;20029;-65
2022/02/25 08:25:43;;;;;;;4.72;1.52;;;;;;;3.39;100.00;95777.47;5014826;28;20040;-66
2022/02/25 08:28:09;;;;;;;4.50;1.55;;;;;;;3.67;100.00;95771.94;5013063;28;20391;-65
2022/02/25 08:30:36;;;;;;;2.70;1.27;;;;;;;3.86;100.00;95764.19;5013275;28;20025;-66
2022/02/25 08:33:02;;;;;;;5.40;1.20;;;;;;;3.90;100.00;95763.56;5029022;28;20396;-66
2022/02/25 08:35:33;;;;;;;3.33;1.23;;;;;;;4.31;100.00;95750.00;5031729;28;20029;-65
2022/02/25 08:38:01;;;;;;;5.75;1.50;;;;;;;4.69;100.00;95743.94;5029887;28;20040;-65
2022/02/25 08:40:27;;;;;;;4.90;1.13;;;;;;;4.85;100.00;95724.84;5032072;28;20028;-65
2022/02/25 08:42:59;;;;;;;9.10;1.20;;;;;;;5.05;100.00;95719.44;5013571;28;20029;-65
2022/02/25 08:45:29;;;;;;;6.35;1.65;;;;;;;5.30;100.00;95702.69;4998435;28;20025;-65
2022/02/25 08:47:56;;;;;;;6.05;1.50;;;;;;;5.60;100.00;95693.03;5032055;28;20419;-65
2022/02/25 08:50:22;;;;;;;5.43;1.58;;;;;;;5.66;100.00;95673.59;5014094;28;20063;-65
2022/02/25 08:52:56;;;;;;;3.70;1.38;;;;;;;5.73;100.00;95653.03;5031925;28;20049;-65
2022/02/25 08:55:26;;;;;;;8.20;1.45;;;;;;;6.03;100.00;95620.44;5014259;28;20025;-65
2022/02/25 08:57:59;;;;;;;6.95;1.60;;;;;;;5.51;100.00;95598.69;5031808;28;20423;-65
2022/02/25 09:00:38;;;;;;;3.75;1.17;;;;;;;4.98;100.00;95570.00;5014033;28;20033;-65
2022/02/25 09:03:04;;;;;;;4.25;1.40;;;;;;;5.10;100.00;95554.16;5031986;28;20100;-65
2022/02/25 09:05:32;;;;;;;5.60;1.48;;;;;;;5.13;100.00;95535.16;5032265;28;20503;-65
2022/02/25 09:07:58;;;;;;;5.90;1.58;;;;;;;4.96;100.00;95518.97;5031906;28;20017;-65
2022/02/25 09:10:25;;;;;;;6.18;1.17;;;;;;;5.23;100.00;95517.69;5014502;28;20021;-65
2022/02/25 09:12:51;;;;;;;2.78;1.50;;;;;;;5.26;100.00;95513.75;5032062;28;20388;-65
2022/02/25 09:15:24;;;;;;;7.80;1.38;;;;;;;5.28;100.00;95524.97;5032599;28;20021;-65
2022/02/25 09:17:58;;;;;;;4.25;1.48;;;;;;;5.02;100.00;95528.72;5032147;28;20079;-65
2022/02/25 09:20:25;;;;;;;4.88;1.50;;;;;;;4.98;100.00;95543.44;5031469;28;20025;-65
2022/02/25 09:22:51;;;;;;;6.10;1.35;;;;;;;5.42;100.00;95558.31;5013522;28;20057;-65
2022/02/25 09:25:27;;;;;;;4.95;1.60;;;;;;;5.71;100.00;95582.53;5013220;28;20026;-65
2022/02/25 09:27:53;;;;;;;3.42;1.20;;;;;;;5.46;100.00;95607.34;5012986;28;20029;-65
2022/02/25 09:30:24;;;;;;;6.53;1.42;;;;;;;5.06;100.00;95651.22;5032992;28;20479;-66
2022/02/25 09:32:50;;;;;;;6.30;1.00;;;;;;;4.68;100.00;95689.25;5017264;28;20021;-66
2022/02/25 09:35:28;;;;;;;4.72;0.95;;;;;;;4.28;100.00;95731.88;5017811;28;20029;-66
2022/02/25 09:37:59;;;;;;;3.35;1.40;;;;;;;3.81;100.00;95754.22;5035440;28;20033;-66
2022/02/25 09:40:35;;;;;;;4.22;1.08;;;;;;;3.55;100.00;95768.28;5035221;28;20495;-66
2022/02/25 09:43:05;;;;;;;2.55;0.90;;;;;;;3.43;100.00;95772.56;5024975;28;20520;-66
2022/02/25 09:45:34;;;;;;;5.20;1.20;;;;;;;3.32;100.00;95776.63;5017711;28;20068;-66
2022/02/25 09:47:59;;;;;;;4.88;1.10;;;;;;;3.52;100.00;95776.66;5035100;28;20041;-66
2022/02/25 09:50:26;;;;;;;5.25;1.00;;;;;;;3.99;100.00;95772.94;5035017;28;20125;-66
2022/02/25 09:52:54;;;;;;;5.47;1.20;;;;;;;4.21;100.00;95781.44;5027883;28;20053;-66
2022/02/25 09:55:24;;;;;;;2.75;1.00;;;;;;;4.25;100.00;95784.50;5014835;28;20021;-66
2022/02/25 09:57:54;;;;;;;6.88;1.30;;;;;;;4.08;100.00;95808.00;5035452;28;20465;-66
2022/02/25 10:00:21;;;;;;;9.88;1.48;;;;;;;3.90;100.00;95834.31;5031594;28;20048;-66
2022/02/25 10:02:59;;;;;;;3.53;1.20;;;;;;;3.97;100.00;95845.72;5014807;28;20113;-66
2022/02/25 10:05:27;;;;;;;6.57;1.00;;;;;;;4.18;100.00;95847.34;5034541;28;20041;-66
2022/02/25 10:07:53;;;;;;;6.35;1.13;;;;;;;4.57;100.00;95867.69;5034644;28;20085;-66
2022/02/25 10:10:20;;;;;;;7.10;1.13;;;;;;;4.51;100.00;95898.50;5035164;28;20115;-66
2022/02/25 10:13:06;;;;;;;5.18;1.25;;;;;;;4.42;100.00;95939.53;5033653;28;20021;-66
2022/02/25 10:15:37;;;;;;;3.35;1.05;;;;;;;4.27;100.00;95955.66;5015524;28;20395;-66
2022/02/25 10:18:05;;;;;;;4.55;1.10;;;;;;;4.33;100.00;95973.38;5035034;28;20059;-66
2022/02/25 10:20:42;;;;;;;7.57;1.50;;;;;;;4.78;100.00;95970.13;5035064;28;20387;-66
2022/02/25 10:23:29;;;;;;;4.70;1.10;;;;;;;5.42;100.00;95970.09;4997769;28;20052;-66
2022/02/25 10:26:14;;;;;;;4.18;1.13;;;;;;;6.00;100.00;95993.19;5015033;28;20034;-66
2022/02/25 10:28:51;;;;;;;4.70;1.10;;;;;;;6.47;100.00;96030.94;4997527;28;20026;-66
2022/02/25 10:31:33;;;;;;;4.78;1.00;;;;;;;7.08;100.00;96059.53;5020911;28;20476;-65
2022/02/25 10:34:16;;;;;;;3.50;1.00;;;;;;;7.56;100.00;96081.78;5034865;28;20037;-66
2022/02/25 10:36:47;;;;;;;6.10;1.40;;;;;;;7.55;100.00;96109.50;5034670;28;20025;-66
2022/02/25 10:39:32;;;;;;;5.82;1.33;;;;;;;6.86;100.00;96147.00;5034808;28;20017;-66
2022/02/25 10:42:19;;;;;;;4.00;1.13;;;;;;;5.89;100.00;96159.50;5042743;28;20474;-66
2022/02/25 10:45:06;;;;;;;3.72;1.23;;;;;;;5.39;100.00;96145.88;5032487;22;20054;-63
2022/02/25 10:47:35;;;;;;;6.95;1.30;;;;;;;4.92;100.00;96142.44;5013501;28;20046;-62
2022/02/25 10:50:05;;;;;;;2.25;1.05;;;;;;;4.81;100.00;96136.91;5014517;28;20033;-63
2022/02/25 10:52:44;;;;;;;4.32;0.90;;;;;;;5.22;100.00;96128.75;5014614;28;20026;-63
2022/02/25 10:55:15;;;;;;;3.85;0.98;;;;;;;5.29;100.00;96126.06;4994930;28;20049;-64
2022/02/25 10:57:41;;;;;;;4.18;1.08;;;;;;;5.10;100.00;96136.53;4994892;28;20030;-63
2022/02/25 11:00:22;;;;;;;5.90;1.10;;;;;;;5.34;100.00;96148.34;4995010;28;20023;-64
2022/02/25 11:02:51;;;;;;;5.72;1.02;;;;;;;5.45;100.00;96176.97;4994793;28;20041;-63
2022/02/25 11:05:31;;;;;;;6.70;1.10;;;;;;;5.90;100.00;96187.75;4977288;28;20026;-63
2022/02/25 11:08:02;;;;;;;3.70;0.98;;;;;;;6.30;100.00;96195.63;4977126;28;20026;-62
2022/02/25 11:10:35;;;;;;;3.97;1.33;;;;;;;6.67;100.00;96200.13;4977291;28;20030;-63
2022/02/25 11:13:05;;;;;;;4.18;1.02;;;;;;;7.18;100.00;96211.72;4977076;28;20481;-63
2022/02/25 11:15:35;;;;;;;4.38;0.95;;;;;;;7.26;100.00;96236.25;4994556;28;20030;-62
2022/02/25 11:18:08;;;;;;;3.33;0.88;;;;;;;7.61;100.00;96256.31;4994490;28;20048;-63
2022/02/25 11:20:40;;;;;;;2.70;0.80;;;;;;;7.63;100.00;96288.91;4994380;28;20145;-63
2022/02/25 11:23:09;;;;;;;3.17;1.10;;;;;;;7.56;100.00;96300.41;4994398;28;20031;-61
2022/02/25 11:25:39;;;;;;;1.85;0.60;;;;;;;7.05;98.09;96321.84;4977430;28;20030;-63
2022/02/25 11:28:05;;;;;;;5.97;0.98;;;;;;;6.79;100.00;96305.97;4976957;28;20018;-63
2022/02/25 11:30:53;;;;;;;2.85;0.95;;;;;;;6.24;100.00;96316.16;4994167;28;20121;-63
2022/02/25 11:33:21;;;;;;;4.03;0.85;;;;;;;5.63;100.00;96300.41;4980577;28;20046;-62
2022/02/25 11:35:54;;;;;;;2.00;0.88;;;;;;;5.84;100.00;96284.25;4994008;28;20048;-63
2022/02/25 11:38:31;;;;;;;3.00;0.90;;;;;;;6.22;100.00;96268.50;4976785;28;20531;-64
2022/02/25 11:40:59;;;;;;;3.78;0.88;;;;;;;6.76;100.00;96264.63;4935285;28;20042;-64
2022/02/25 11:43:40;;;;;;;4.80;1.13;;;;;;;7.24;100.00;96259.63;4993483;28;20074;-64
2022/02/25 11:46:09;;;;;;;5.20;1.02;;;;;;;7.66;100.00;96264.47;4994081;28;20034;-64
2022/02/25 11:48:50;;;;;;;3.95;1.40;;;;;;;8.18;100.00;96263.19;4994112;28;20477;-64
2022/02/25 11:51:40;;;;;;;3.83;0.88;;;;;;;8.47;100.00;96277.69;4976501;28;20073;-64